sensor_id;sensor_type;location;lat;lon;timestamp;temperature;humidity
5870;DHT22;2961;47.702;9.410;2022-10-16T00:01:16;12.00;99.90
5870;DHT22;2961;47.702;9.410;2022-10-16T00:03:44;12.10;99.90
5870;DHT22;2961;47.702;9.410;2022-10-16T00:06:13;12.10;99.90
5870;DHT22;2961;47.702;9.410;2022-10-16T00:08:40;12.30;99.90
5870;DHT22;2961;47.702;9.410;2022-10-16T00:11:08;12.20;99.90
5870;DHT22;2961;47.702;9.410;2022-10-16T00:13:38;12.20;99.90
5870;DHT22;2961;47.702;9.410;2022-10-16T00:16:06;12.20;99.90
5870;DHT22;2961;47.702;9.410;2022-10-16T00:18:33;12.30;99.90
5870;DHT22;2961;47.702;9.410;2022-10-16T00:21:04;12.40;99.90
5870;DHT22;2961;47.702;9.410;2022-10-16T00:23:32;12.60;99.90
5870;DHT22;2961;47.702;9.410;2022-10-16T00:26:01;12.70;99.90
5870;DHT22;2961;47.702;9.410;2022-10-16T00:28:29;12.70;99.90
5870;DHT22;2961;47.702;9.410;2022-10-16T00:30:56;12.70;99.90
5870;DHT22;2961;47.702;9.410;2022-10-16T00:33:23;12.80;99.90
5870;DHT22;2961;47.702;9.410;2022-10-16T00:35:50;12.90;99.90
5870;DHT22;2961;47.702;9.410;2022-10-16T00:38:17;12.80;99.90
5870;DHT22;2961;47.702;9.410;2022-10-16T00:40:45;12.80;99.90
5870;DHT22;2961;47.702;9.410;2022-10-16T00:43:14;12.80;99.90
5870;DHT22;2961;47.702;9.410;2022-10-16T00:45:58;12.80;99.90
5870;DHT22;2961;47.702;9.410;2022-10-16T00:48:25;12.90;99.90
5870;DHT22;2961;47.702;9.410;2022-10-16T00:50:53;12.80;99.90
5870;DHT22;2961;47.702;9.410;2022-10-16T00:53:20;12.70;99.90
5870;DHT22;2961;47.702;9.410;2022-10-16T00:55:49;12.70;99.90
5870;DHT22;2961;47.702;9.410;2022-10-16T00:58:16;12.60;99.90
5870;DHT22;2961;47.702;9.410;2022-10-16T01:00:42;12.50;99.90
5870;DHT22;2961;47.702;9.410;2022-10-16T01:03:24;12.50;99.90
5870;DHT22;2961;47.702;9.410;2022-10-16T01:05:58;12.50;99.90
5870;DHT22;2961;47.702;9.410;2022-10-16T01:08:35;12.40;99.90
5870;DHT22;2961;47.702;9.410;2022-10-16T01:11:15;12.50;99.90
5870;DHT22;2961;47.702;9.410;2022-10-16T01:13:46;12.50;99.90
5870;DHT22;2961;47.702;9.410;2022-10-16T01:16:19;12.50;99.90
5870;DHT22;2961;47.702;9.410;2022-10-16T01:18:53;12.60;99.90
5870;DHT22;2961;47.702;9.410;2022-10-16T01:21:24;12.50;99.90
5870;DHT22;2961;47.702;9.410;2022-10-16T01:24:08;12.60;99.90
5870;DHT22;2961;47.702;9.410;2022-10-16T01:29:25;12.70;99.90
5870;DHT22;2961;47.702;9.410;2022-10-16T01:31:57;12.80;99.90
5870;DHT22;2961;47.702;9.410;2022-10-16T01:34:30;12.80;99.90
5870;DHT22;2961;47.702;9.410;2022-10-16T01:37:04;12.70;99.90
5870;DHT22;2961;47.702;9.410;2022-10-16T01:39:35;12.60;99.90
5870;DHT22;2961;47.702;9.410;2022-10-16T01:42:06;12.60;99.90
5870;DHT22;2961;47.702;9.410;2022-10-16T01:44:37;12.60;99.90
5870;DHT22;2961;47.702;9.410;2022-10-16T01:47:06;12.70;99.90
5870;DHT22;2961;47.702;9.410;2022-10-16T01:49:35;12.70;99.90
5870;DHT22;2961;47.702;9.410;2022-10-16T01:52:06;12.70;99.90
5870;DHT22;2961;47.702;9.410;2022-10-16T01:54:37;12.60;99.90
5870;DHT22;2961;47.702;9.410;2022-10-16T01:57:06;12.50;99.90
5870;DHT22;2961;47.702;9.410;2022-10-16T01:59:38;12.50;99.90
5870;DHT22;2961;47.702;9.410;2022-10-16T02:02:08;12.50;99.90
5870;DHT22;2961;47.702;9.410;2022-10-16T02:04:39;12.50;99.90
5870;DHT22;2961;47.702;9.410;2022-10-16T02:07:07;12.50;99.90
5870;DHT22;2961;47.702;9.410;2022-10-16T02:09:34;12.60;99.90
5870;DHT22;2961;47.702;9.410;2022-10-16T02:12:07;12.50;99.90
5870;DHT22;2961;47.702;9.410;2022-10-16T02:14:39;12.50;99.90
5870;DHT22;2961;47.702;9.410;2022-10-16T02:17:11;12.40;99.90
5870;DHT22;2961;47.702;9.410;2022-10-16T02:19:37;12.40;99.90
5870;DHT22;2961;47.702;9.410;2022-10-16T02:22:06;12.40;99.90
5870;DHT22;2961;47.702;9.410;2022-10-16T02:24:39;12.40;99.90
5870;DHT22;2961;47.702;9.410;2022-10-16T02:27:11;12.40;99.90
5870;DHT22;2961;47.702;9.410;2022-10-16T02:29:43;12.40;99.90
5870;DHT22;2961;47.702;9.410;2022-10-16T02:32:16;12.50;99.90
5870;DHT22;2961;47.702;9.410;2022-10-16T02:34:47;12.60;99.90
5870;DHT22;2961;47.702;9.410;2022-10-16T02:37:16;12.70;99.90
5870;DHT22;2961;47.702;9.410;2022-10-16T02:39:44;12.70;99.90
5870;DHT22;2961;47.702;9.410;2022-10-16T02:42:11;12.70;99.90
5870;DHT22;2961;47.702;9.410;2022-10-16T02:44:38;12.60;99.90
5870;DHT22;2961;47.702;9.410;2022-10-16T02:47:06;12.60;99.90
5870;DHT22;2961;47.702;9.410;2022-10-16T02:49:33;12.60;99.90
5870;DHT22;2961;47.702;9.410;2022-10-16T02:52:00;12.50;99.90
5870;DHT22;2961;47.702;9.410;2022-10-16T02:54:27;12.50;99.90
5870;DHT22;2961;47.702;9.410;2022-10-16T02:56:53;12.50;99.90
5870;DHT22;2961;47.702;9.410;2022-10-16T02:59:20;12.50;99.90
5870;DHT22;2961;47.702;9.410;2022-10-16T03:01:47;12.70;99.90
5870;DHT22;2961;47.702;9.410;2022-10-16T03:04:15;12.80;99.90
5870;DHT22;2961;47.702;9.410;2022-10-16T03:06:42;12.80;99.90
5870;DHT22;2961;47.702;9.410;2022-10-16T03:09:08;12.90;99.90
5870;DHT22;2961;47.702;9.410;2022-10-16T03:11:35;12.90;99.90
5870;DHT22;2961;47.702;9.410;2022-10-16T03:14:02;12.80;99.90
5870;DHT22;2961;47.702;9.410;2022-10-16T03:16:29;12.80;99.90
5870;DHT22;2961;47.702;9.410;2022-10-16T03:18:55;12.80;99.90
5870;DHT22;2961;47.702;9.410;2022-10-16T03:21:24;12.70;99.90
5870;DHT22;2961;47.702;9.410;2022-10-16T03:23:50;12.80;99.90
5870;DHT22;2961;47.702;9.410;2022-10-16T03:26:17;12.70;99.90
5870;DHT22;2961;47.702;9.410;2022-10-16T03:28:44;12.60;99.90
5870;DHT22;2961;47.702;9.410;2022-10-16T03:31:10;12.60;99.90
5870;DHT22;2961;47.702;9.410;2022-10-16T03:33:37;12.60;99.90
5870;DHT22;2961;47.702;9.410;2022-10-16T03:36:04;12.50;99.90
5870;DHT22;2961;47.702;9.410;2022-10-16T03:38:33;12.40;99.90
5870;DHT22;2961;47.702;9.410;2022-10-16T03:40:59;12.30;99.90
5870;DHT22;2961;47.702;9.410;2022-10-16T03:43:26;12.30;99.90
5870;DHT22;2961;47.702;9.410;2022-10-16T03:45:53;12.30;99.90
5870;DHT22;2961;47.702;9.410;2022-10-16T03:48:20;12.40;99.90
5870;DHT22;2961;47.702;9.410;2022-10-16T03:50:46;12.20;99.90
5870;DHT22;2961;47.702;9.410;2022-10-16T03:53:14;12.30;99.90
5870;DHT22;2961;47.702;9.410;2022-10-16T03:55:42;12.30;99.90
5870;DHT22;2961;47.702;9.410;2022-10-16T03:58:09;12.20;99.90
5870;DHT22;2961;47.702;9.410;2022-10-16T04:00:40;12.20;99.90
5870;DHT22;2961;47.702;9.410;2022-10-16T04:03:06;12.10;99.90
5870;DHT22;2961;47.702;9.410;2022-10-16T04:05:33;12.10;99.90
5870;DHT22;2961;47.702;9.410;2022-10-16T04:08:00;12.10;99.90
5870;DHT22;2961;47.702;9.410;2022-10-16T04:10:27;12.00;99.90
5870;DHT22;2961;47.702;9.410;2022-10-16T04:12:55;11.90;99.90
5870;DHT22;2961;47.702;9.410;2022-10-16T04:15:22;11.80;99.90
5870;DHT22;2961;47.702;9.410;2022-10-16T04:17:49;11.80;99.90
5870;DHT22;2961;47.702;9.410;2022-10-16T04:20:16;11.80;99.90
5870;DHT22;2961;47.702;9.410;2022-10-16T04:22:43;11.70;99.90
5870;DHT22;2961;47.702;9.410;2022-10-16T04:25:10;11.70;99.90
5870;DHT22;2961;47.702;9.410;2022-10-16T04:27:37;11.60;99.90
5870;DHT22;2961;47.702;9.410;2022-10-16T04:30:07;11.50;99.90
5870;DHT22;2961;47.702;9.410;2022-10-16T04:32:33;11.30;99.90
5870;DHT22;2961;47.702;9.410;2022-10-16T04:35:00;11.30;99.90
5870;DHT22;2961;47.702;9.410;2022-10-16T04:37:28;11.20;99.90
5870;DHT22;2961;47.702;9.410;2022-10-16T04:39:55;11.20;99.90
5870;DHT22;2961;47.702;9.410;2022-10-16T04:42:21;11.20;99.90
5870;DHT22;2961;47.702;9.410;2022-10-16T04:44:48;11.10;99.90
5870;DHT22;2961;47.702;9.410;2022-10-16T04:47:16;11.20;99.90
5870;DHT22;2961;47.702;9.410;2022-10-16T04:49:43;11.20;99.90
5870;DHT22;2961;47.702;9.410;2022-10-16T04:52:10;11.30;99.90
5870;DHT22;2961;47.702;9.410;2022-10-16T04:54:36;11.30;99.90
5870;DHT22;2961;47.702;9.410;2022-10-16T04:57:03;11.40;99.90
5870;DHT22;2961;47.702;9.410;2022-10-16T04:59:30;11.50;99.90
5870;DHT22;2961;47.702;9.410;2022-10-16T05:01:57;11.50;99.90
5870;DHT22;2961;47.702;9.410;2022-10-16T05:04:39;11.40;99.90
5870;DHT22;2961;47.702;9.410;2022-10-16T05:07:05;11.40;99.90
5870;DHT22;2961;47.702;9.410;2022-10-16T05:09:32;11.30;99.90
5870;DHT22;2961;47.702;9.410;2022-10-16T05:11:59;11.30;99.90
5870;DHT22;2961;47.702;9.410;2022-10-16T05:14:26;11.30;99.90
5870;DHT22;2961;47.702;9.410;2022-10-16T05:16:52;11.30;99.90
5870;DHT22;2961;47.702;9.410;2022-10-16T05:19:19;11.40;99.90
5870;DHT22;2961;47.702;9.410;2022-10-16T05:21:47;11.40;99.90
5870;DHT22;2961;47.702;9.410;2022-10-16T05:24:14;11.40;99.90
5870;DHT22;2961;47.702;9.410;2022-10-16T05:26:41;11.50;99.90
5870;DHT22;2961;47.702;9.410;2022-10-16T05:29:08;11.40;99.90
5870;DHT22;2961;47.702;9.410;2022-10-16T05:31:35;11.40;99.90
5870;DHT22;2961;47.702;9.410;2022-10-16T05:34:02;11.40;99.90
5870;DHT22;2961;47.702;9.410;2022-10-16T05:36:29;11.40;99.90
5870;DHT22;2961;47.702;9.410;2022-10-16T05:38:57;11.40;99.90
5870;DHT22;2961;47.702;9.410;2022-10-16T05:41:24;11.40;99.90
5870;DHT22;2961;47.702;9.410;2022-10-16T05:43:51;11.40;99.90
5870;DHT22;2961;47.702;9.410;2022-10-16T05:46:18;11.40;99.90
5870;DHT22;2961;47.702;9.410;2022-10-16T05:48:45;11.50;99.90
5870;DHT22;2961;47.702;9.410;2022-10-16T05:51:14;11.50;99.90
5870;DHT22;2961;47.702;9.410;2022-10-16T05:53:41;11.50;99.90
5870;DHT22;2961;47.702;9.410;2022-10-16T05:56:11;11.50;99.90
5870;DHT22;2961;47.702;9.410;2022-10-16T05:58:38;11.50;99.90
5870;DHT22;2961;47.702;9.410;2022-10-16T06:01:09;11.50;99.90
5870;DHT22;2961;47.702;9.410;2022-10-16T06:03:36;11.50;99.90
5870;DHT22;2961;47.702;9.410;2022-10-16T06:06:07;11.50;99.90
5870;DHT22;2961;47.702;9.410;2022-10-16T06:08:34;11.60;99.90
5870;DHT22;2961;47.702;9.410;2022-10-16T06:11:02;11.70;99.90
5870;DHT22;2961;47.702;9.410;2022-10-16T06:13:30;11.70;99.90
5870;DHT22;2961;47.702;9.410;2022-10-16T06:15:57;11.80;99.90
5870;DHT22;2961;47.702;9.410;2022-10-16T06:18:25;11.80;99.90
5870;DHT22;2961;47.702;9.410;2022-10-16T06:20:52;11.90;99.90
5870;DHT22;2961;47.702;9.410;2022-10-16T06:23:18;12.00;99.90
5870;DHT22;2961;47.702;9.410;2022-10-16T06:25:45;12.10;99.90
5870;DHT22;2961;47.702;9.410;2022-10-16T06:28:14;12.20;99.90
5870;DHT22;2961;47.702;9.410;2022-10-16T06:30:42;12.30;99.90
5870;DHT22;2961;47.702;9.410;2022-10-16T06:33:09;12.60;99.90
5870;DHT22;2961;47.702;9.410;2022-10-16T06:35:36;12.80;99.90
5870;DHT22;2961;47.702;9.410;2022-10-16T06:38:03;13.00;99.90
5870;DHT22;2961;47.702;9.410;2022-10-16T06:40:29;13.00;99.90
5870;DHT22;2961;47.702;9.410;2022-10-16T06:42:56;13.20;99.90
5870;DHT22;2961;47.702;9.410;2022-10-16T06:45:23;13.40;99.90
5870;DHT22;2961;47.702;9.410;2022-10-16T06:47:51;13.70;99.90
5870;DHT22;2961;47.702;9.410;2022-10-16T06:50:18;13.90;99.90
5870;DHT22;2961;47.702;9.410;2022-10-16T06:52:45;14.10;99.90
5870;DHT22;2961;47.702;9.410;2022-10-16T06:55:11;14.20;99.90
5870;DHT22;2961;47.702;9.410;2022-10-16T06:57:38;14.30;99.90
5870;DHT22;2961;47.702;9.410;2022-10-16T07:00:06;14.40;99.90
5870;DHT22;2961;47.702;9.410;2022-10-16T07:02:33;14.50;99.90
5870;DHT22;2961;47.702;9.410;2022-10-16T07:05:01;14.50;99.90
5870;DHT22;2961;47.702;9.410;2022-10-16T07:07:28;14.50;99.90
5870;DHT22;2961;47.702;9.410;2022-10-16T07:09:55;14.60;99.90
5870;DHT22;2961;47.702;9.410;2022-10-16T07:12:21;14.60;99.90
5870;DHT22;2961;47.702;9.410;2022-10-16T07:14:49;14.70;99.90
5870;DHT22;2961;47.702;9.410;2022-10-16T07:17:17;14.60;99.90
5870;DHT22;2961;47.702;9.410;2022-10-16T07:19:45;14.70;99.90
5870;DHT22;2961;47.702;9.410;2022-10-16T07:22:13;14.70;99.90
5870;DHT22;2961;47.702;9.410;2022-10-16T07:24:40;14.70;99.90
5870;DHT22;2961;47.702;9.410;2022-10-16T07:27:09;14.70;99.90
5870;DHT22;2961;47.702;9.410;2022-10-16T07:29:36;14.70;99.90
5870;DHT22;2961;47.702;9.410;2022-10-16T07:32:03;14.80;99.90
5870;DHT22;2961;47.702;9.410;2022-10-16T07:34:30;14.90;99.90
5870;DHT22;2961;47.702;9.410;2022-10-16T07:36:57;15.00;99.90
5870;DHT22;2961;47.702;9.410;2022-10-16T07:39:25;14.90;99.90
5870;DHT22;2961;47.702;9.410;2022-10-16T07:41:52;14.90;99.90
5870;DHT22;2961;47.702;9.410;2022-10-16T07:44:18;14.90;99.90
5870;DHT22;2961;47.702;9.410;2022-10-16T07:46:45;14.80;99.90
5870;DHT22;2961;47.702;9.410;2022-10-16T07:49:12;14.80;99.90
5870;DHT22;2961;47.702;9.410;2022-10-16T07:51:39;14.70;99.90
5870;DHT22;2961;47.702;9.410;2022-10-16T07:54:05;14.70;99.90
5870;DHT22;2961;47.702;9.410;2022-10-16T07:56:34;14.60;99.90
5870;DHT22;2961;47.702;9.410;2022-10-16T07:59:00;14.60;99.90
5870;DHT22;2961;47.702;9.410;2022-10-16T08:01:27;14.70;99.90
5870;DHT22;2961;47.702;9.410;2022-10-16T08:03:54;14.90;99.90
5870;DHT22;2961;47.702;9.410;2022-10-16T08:06:22;15.10;99.90
5870;DHT22;2961;47.702;9.410;2022-10-16T08:08:49;15.30;99.90
5870;DHT22;2961;47.702;9.410;2022-10-16T08:11:15;15.50;99.90
5870;DHT22;2961;47.702;9.410;2022-10-16T08:13:43;15.70;99.90
5870;DHT22;2961;47.702;9.410;2022-10-16T08:16:11;15.70;99.90
5870;DHT22;2961;47.702;9.410;2022-10-16T08:18:38;15.80;99.90
5870;DHT22;2961;47.702;9.410;2022-10-16T08:21:07;15.80;99.90
5870;DHT22;2961;47.702;9.410;2022-10-16T08:23:34;15.80;99.90
5870;DHT22;2961;47.702;9.410;2022-10-16T08:26:05;15.90;99.90
5870;DHT22;2961;47.702;9.410;2022-10-16T08:28:32;15.90;99.90
5870;DHT22;2961;47.702;9.410;2022-10-16T08:31:07;15.90;99.90
5870;DHT22;2961;47.702;9.410;2022-10-16T08:33:34;15.90;99.90
5870;DHT22;2961;47.702;9.410;2022-10-16T08:36:01;16.10;99.90
5870;DHT22;2961;47.702;9.410;2022-10-16T08:38:28;16.30;99.90
5870;DHT22;2961;47.702;9.410;2022-10-16T08:41:00;16.50;99.90
5870;DHT22;2961;47.702;9.410;2022-10-16T08:43:42;16.70;99.90
5870;DHT22;2961;47.702;9.410;2022-10-16T08:46:25;17.00;99.90
5870;DHT22;2961;47.702;9.410;2022-10-16T08:48:58;17.20;99.90
5870;DHT22;2961;47.702;9.410;2022-10-16T08:51:27;17.30;99.90
5870;DHT22;2961;47.702;9.410;2022-10-16T08:53:57;17.40;99.90
5870;DHT22;2961;47.702;9.410;2022-10-16T08:56:25;17.40;99.90
5870;DHT22;2961;47.702;9.410;2022-10-16T08:58:53;17.40;99.90
5870;DHT22;2961;47.702;9.410;2022-10-16T09:01:22;17.30;99.90
5870;DHT22;2961;47.702;9.410;2022-10-16T09:04:04;17.20;99.90
5870;DHT22;2961;47.702;9.410;2022-10-16T09:06:43;17.20;99.90
5870;DHT22;2961;47.702;9.410;2022-10-16T09:09:23;17.20;99.90
5870;DHT22;2961;47.702;9.410;2022-10-16T09:11:56;17.20;99.90
5870;DHT22;2961;47.702;9.410;2022-10-16T09:14:43;17.20;99.90
5870;DHT22;2961;47.702;9.410;2022-10-16T09:17:32;17.20;99.90
5870;DHT22;2961;47.702;9.410;2022-10-16T09:20:26;17.20;99.90
5870;DHT22;2961;47.702;9.410;2022-10-16T09:23:08;17.20;99.90
5870;DHT22;2961;47.702;9.410;2022-10-16T09:25:37;17.20;99.90
5870;DHT22;2961;47.702;9.410;2022-10-16T09:28:05;17.30;99.90
5870;DHT22;2961;47.702;9.410;2022-10-16T09:30:32;17.30;99.90
5870;DHT22;2961;47.702;9.410;2022-10-16T09:33:00;17.40;99.90
5870;DHT22;2961;47.702;9.410;2022-10-16T09:35:35;17.50;99.90
5870;DHT22;2961;47.702;9.410;2022-10-16T09:38:02;17.60;99.90
5870;DHT22;2961;47.702;9.410;2022-10-16T09:40:31;17.60;99.90
5870;DHT22;2961;47.702;9.410;2022-10-16T09:43:03;17.70;99.90
5870;DHT22;2961;47.702;9.410;2022-10-16T09:45:32;17.80;99.90
5870;DHT22;2961;47.702;9.410;2022-10-16T09:48:10;17.90;99.90
5870;DHT22;2961;47.702;9.410;2022-10-16T09:50:37;17.90;99.90
5870;DHT22;2961;47.702;9.410;2022-10-16T09:53:06;18.00;99.90
5870;DHT22;2961;47.702;9.410;2022-10-16T09:55:35;18.00;99.90
5870;DHT22;2961;47.702;9.410;2022-10-16T09:58:01;18.00;99.90
5870;DHT22;2961;47.702;9.410;2022-10-16T10:00:28;18.10;99.90
5870;DHT22;2961;47.702;9.410;2022-10-16T10:02:55;18.10;99.90
5870;DHT22;2961;47.702;9.410;2022-10-16T10:05:25;18.10;99.90
5870;DHT22;2961;47.702;9.410;2022-10-16T10:07:55;18.20;99.90
5870;DHT22;2961;47.702;9.410;2022-10-16T10:10:24;18.20;99.90
5870;DHT22;2961;47.702;9.410;2022-10-16T10:12:52;18.30;99.90
5870;DHT22;2961;47.702;9.410;2022-10-16T10:15:19;18.40;99.90
5870;DHT22;2961;47.702;9.410;2022-10-16T10:17:49;18.50;99.90
5870;DHT22;2961;47.702;9.410;2022-10-16T10:20:25;18.70;99.90
5870;DHT22;2961;47.702;9.410;2022-10-16T10:22:53;18.70;99.90
5870;DHT22;2961;47.702;9.410;2022-10-16T10:25:44;18.70;99.90
5870;DHT22;2961;47.702;9.410;2022-10-16T10:28:38;18.70;99.90
5870;DHT22;2961;47.702;9.410;2022-10-16T10:31:13;18.90;99.90
5870;DHT22;2961;47.702;9.410;2022-10-16T10:33:45;19.00;99.90
5870;DHT22;2961;47.702;9.410;2022-10-16T10:36:22;19.10;99.90
5870;DHT22;2961;47.702;9.410;2022-10-16T10:38:56;19.30;99.90
5870;DHT22;2961;47.702;9.410;2022-10-16T10:41:44;19.40;99.90
5870;DHT22;2961;47.702;9.410;2022-10-16T10:44:27;19.50;99.90
5870;DHT22;2961;47.702;9.410;2022-10-16T10:46:58;19.70;99.90
5870;DHT22;2961;47.702;9.410;2022-10-16T10:49:39;19.90;99.90
5870;DHT22;2961;47.702;9.410;2022-10-16T10:52:30;20.00;99.90
5870;DHT22;2961;47.702;9.410;2022-10-16T10:55:09;19.90;99.90
5870;DHT22;2961;47.702;9.410;2022-10-16T10:57:43;19.80;99.90
5870;DHT22;2961;47.702;9.410;2022-10-16T11:00:19;19.80;99.90
5870;DHT22;2961;47.702;9.410;2022-10-16T11:02:50;19.80;99.90
5870;DHT22;2961;47.702;9.410;2022-10-16T11:05:42;19.80;99.90
5870;DHT22;2961;47.702;9.410;2022-10-16T11:08:17;19.90;99.90
5870;DHT22;2961;47.702;9.410;2022-10-16T11:10:51;19.80;99.90
5870;DHT22;2961;47.702;9.410;2022-10-16T11:13:28;19.70;99.90
5870;DHT22;2961;47.702;9.410;2022-10-16T11:15:59;19.60;99.90
5870;DHT22;2961;47.702;9.410;2022-10-16T11:18:32;19.70;99.90
5870;DHT22;2961;47.702;9.410;2022-10-16T11:21:04;19.70;99.90
5870;DHT22;2961;47.702;9.410;2022-10-16T11:23:38;19.80;99.90
5870;DHT22;2961;47.702;9.410;2022-10-16T11:26:13;19.80;99.90
5870;DHT22;2961;47.702;9.410;2022-10-16T11:28:44;19.80;99.90
5870;DHT22;2961;47.702;9.410;2022-10-16T11:31:16;19.90;99.90
5870;DHT22;2961;47.702;9.410;2022-10-16T11:33:47;20.00;99.90
5870;DHT22;2961;47.702;9.410;2022-10-16T11:36:19;20.10;99.90
5870;DHT22;2961;47.702;9.410;2022-10-16T11:38:52;20.10;99.90
5870;DHT22;2961;47.702;9.410;2022-10-16T11:41:26;20.10;99.90
5870;DHT22;2961;47.702;9.410;2022-10-16T11:44:04;20.10;99.90
5870;DHT22;2961;47.702;9.410;2022-10-16T11:46:36;20.10;99.90
5870;DHT22;2961;47.702;9.410;2022-10-16T11:49:11;20.10;99.90
5870;DHT22;2961;47.702;9.410;2022-10-16T11:51:42;20.20;99.90
5870;DHT22;2961;47.702;9.410;2022-10-16T11:54:20;20.40;99.90
5870;DHT22;2961;47.702;9.410;2022-10-16T11:56:51;20.50;99.90
5870;DHT22;2961;47.702;9.410;2022-10-16T11:59:24;20.60;99.90
5870;DHT22;2961;47.702;9.410;2022-10-16T12:01:58;20.60;99.90
5870;DHT22;2961;47.702;9.410;2022-10-16T12:04:33;20.60;99.90
5870;DHT22;2961;47.702;9.410;2022-10-16T12:07:08;20.70;99.90
5870;DHT22;2961;47.702;9.410;2022-10-16T12:09:39;20.70;99.90
5870;DHT22;2961;47.702;9.410;2022-10-16T12:12:24;20.70;99.90
5870;DHT22;2961;47.702;9.410;2022-10-16T12:15:00;20.70;99.90
5870;DHT22;2961;47.702;9.410;2022-10-16T12:17:34;20.60;99.90
5870;DHT22;2961;47.702;9.410;2022-10-16T12:20:20;20.70;99.90
5870;DHT22;2961;47.702;9.410;2022-10-16T12:22:49;21.00;99.90
5870;DHT22;2961;47.702;9.410;2022-10-16T12:25:25;21.10;99.90
5870;DHT22;2961;47.702;9.410;2022-10-16T12:27:59;21.20;99.90
5870;DHT22;2961;47.702;9.410;2022-10-16T12:30:28;21.30;99.90
5870;DHT22;2961;47.702;9.410;2022-10-16T12:32:56;21.40;99.90
5870;DHT22;2961;47.702;9.410;2022-10-16T12:35:27;21.50;99.90
5870;DHT22;2961;47.702;9.410;2022-10-16T12:38:07;21.50;99.90
5870;DHT22;2961;47.702;9.410;2022-10-16T12:40:37;21.50;99.90
5870;DHT22;2961;47.702;9.410;2022-10-16T12:43:12;21.40;99.90
5870;DHT22;2961;47.702;9.410;2022-10-16T12:45:39;21.30;99.90
5870;DHT22;2961;47.702;9.410;2022-10-16T12:48:19;21.20;99.90
5870;DHT22;2961;47.702;9.410;2022-10-16T12:50:47;21.00;99.90
5870;DHT22;2961;47.702;9.410;2022-10-16T12:53:19;20.90;99.90
5870;DHT22;2961;47.702;9.410;2022-10-16T12:55:55;20.60;99.90
5870;DHT22;2961;47.702;9.410;2022-10-16T12:58:54;20.50;99.90
5870;DHT22;2961;47.702;9.410;2022-10-16T13:01:31;20.30;99.90
5870;DHT22;2961;47.702;9.410;2022-10-16T13:04:26;20.10;99.90
5870;DHT22;2961;47.702;9.410;2022-10-16T13:07:02;20.10;99.90
5870;DHT22;2961;47.702;9.410;2022-10-16T13:09:42;20.10;99.90
5870;DHT22;2961;47.702;9.410;2022-10-16T13:12:25;20.10;99.90
5870;DHT22;2961;47.702;9.410;2022-10-16T13:15:16;20.10;99.90
5870;DHT22;2961;47.702;9.410;2022-10-16T13:17:54;20.10;99.90
5870;DHT22;2961;47.702;9.410;2022-10-16T13:20:30;20.10;99.90
5870;DHT22;2961;47.702;9.410;2022-10-16T13:23:07;20.20;99.90
5870;DHT22;2961;47.702;9.410;2022-10-16T13:25:44;20.30;99.90
5870;DHT22;2961;47.702;9.410;2022-10-16T13:28:21;20.40;99.90
5870;DHT22;2961;47.702;9.410;2022-10-16T13:30:52;20.50;99.90
5870;DHT22;2961;47.702;9.410;2022-10-16T13:33:22;20.50;99.90
5870;DHT22;2961;47.702;9.410;2022-10-16T13:35:52;20.60;99.90
5870;DHT22;2961;47.702;9.410;2022-10-16T13:38:20;20.70;99.90
5870;DHT22;2961;47.702;9.410;2022-10-16T13:40:53;20.80;99.90
5870;DHT22;2961;47.702;9.410;2022-10-16T13:43:25;20.90;99.90
5870;DHT22;2961;47.702;9.410;2022-10-16T13:45:53;20.90;99.90
5870;DHT22;2961;47.702;9.410;2022-10-16T13:48:20;20.80;99.90
5870;DHT22;2961;47.702;9.410;2022-10-16T13:50:58;20.80;99.90
5870;DHT22;2961;47.702;9.410;2022-10-16T13:53:25;20.80;99.90
5870;DHT22;2961;47.702;9.410;2022-10-16T13:55:52;20.90;99.90
5870;DHT22;2961;47.702;9.410;2022-10-16T13:58:19;21.00;99.90
5870;DHT22;2961;47.702;9.410;2022-10-16T14:00:56;21.00;99.90
5870;DHT22;2961;47.702;9.410;2022-10-16T14:03:23;21.10;99.90
5870;DHT22;2961;47.702;9.410;2022-10-16T14:05:53;21.20;99.90
5870;DHT22;2961;47.702;9.410;2022-10-16T14:08:21;21.20;99.90
5870;DHT22;2961;47.702;9.410;2022-10-16T14:10:50;21.30;99.90
5870;DHT22;2961;47.702;9.410;2022-10-16T14:13:20;21.50;99.90
5870;DHT22;2961;47.702;9.410;2022-10-16T14:15:50;21.70;99.90
5870;DHT22;2961;47.702;9.410;2022-10-16T14:18:22;21.60;99.90
5870;DHT22;2961;47.702;9.410;2022-10-16T14:20:50;21.70;99.90
5870;DHT22;2961;47.702;9.410;2022-10-16T14:23:21;21.80;99.90
5870;DHT22;2961;47.702;9.410;2022-10-16T14:25:48;21.90;99.90
5870;DHT22;2961;47.702;9.410;2022-10-16T14:28:17;22.00;99.90
5870;DHT22;2961;47.702;9.410;2022-10-16T14:30:52;22.00;99.90
5870;DHT22;2961;47.702;9.410;2022-10-16T14:33:23;22.00;99.90
5870;DHT22;2961;47.702;9.410;2022-10-16T14:36:02;22.00;99.90
5870;DHT22;2961;47.702;9.410;2022-10-16T14:38:30;21.90;99.90
5870;DHT22;2961;47.702;9.410;2022-10-16T14:40:58;21.90;99.90
5870;DHT22;2961;47.702;9.410;2022-10-16T14:43:31;21.90;99.90
5870;DHT22;2961;47.702;9.410;2022-10-16T14:45:59;21.90;99.90
5870;DHT22;2961;47.702;9.410;2022-10-16T14:48:28;21.90;99.90
5870;DHT22;2961;47.702;9.410;2022-10-16T14:50:55;21.80;99.90
5870;DHT22;2961;47.702;9.410;2022-10-16T14:53:22;21.80;99.90
5870;DHT22;2961;47.702;9.410;2022-10-16T14:55:49;21.70;99.90
5870;DHT22;2961;47.702;9.410;2022-10-16T14:58:17;21.60;99.90
5870;DHT22;2961;47.702;9.410;2022-10-16T15:00:44;21.50;99.90
5870;DHT22;2961;47.702;9.410;2022-10-16T15:03:11;21.30;99.90
5870;DHT22;2961;47.702;9.410;2022-10-16T15:05:40;21.10;99.90
5870;DHT22;2961;47.702;9.410;2022-10-16T15:08:06;20.80;99.90
5870;DHT22;2961;47.702;9.410;2022-10-16T15:10:42;20.60;99.90
5870;DHT22;2961;47.702;9.410;2022-10-16T15:13:12;20.50;99.90
5870;DHT22;2961;47.702;9.410;2022-10-16T15:15:42;20.50;99.90
5870;DHT22;2961;47.702;9.410;2022-10-16T15:18:09;20.40;99.90
5870;DHT22;2961;47.702;9.410;2022-10-16T15:20:37;20.10;99.90
5870;DHT22;2961;47.702;9.410;2022-10-16T15:23:10;20.00;99.90
5870;DHT22;2961;47.702;9.410;2022-10-16T15:25:42;19.90;99.90
5870;DHT22;2961;47.702;9.410;2022-10-16T15:28:10;19.70;99.90
5870;DHT22;2961;47.702;9.410;2022-10-16T15:30:38;19.60;99.90
5870;DHT22;2961;47.702;9.410;2022-10-16T15:33:08;19.60;99.90
5870;DHT22;2961;47.702;9.410;2022-10-16T15:35:36;19.50;99.90
5870;DHT22;2961;47.702;9.410;2022-10-16T15:38:02;19.50;99.90
5870;DHT22;2961;47.702;9.410;2022-10-16T15:40:31;19.40;99.90
5870;DHT22;2961;47.702;9.410;2022-10-16T15:42:57;19.30;99.90
5870;DHT22;2961;47.702;9.410;2022-10-16T15:45:24;19.20;99.90
5870;DHT22;2961;47.702;9.410;2022-10-16T15:47:51;19.10;99.90
5870;DHT22;2961;47.702;9.410;2022-10-16T15:50:18;18.90;99.90
5870;DHT22;2961;47.702;9.410;2022-10-16T15:52:44;19.00;99.90
5870;DHT22;2961;47.702;9.410;2022-10-16T15:55:13;19.00;99.90
5870;DHT22;2961;47.702;9.410;2022-10-16T15:57:42;18.90;99.90
5870;DHT22;2961;47.702;9.410;2022-10-16T16:00:12;18.70;99.90
5870;DHT22;2961;47.702;9.410;2022-10-16T16:02:39;18.70;99.90
5870;DHT22;2961;47.702;9.410;2022-10-16T16:05:07;18.50;99.90
5870;DHT22;2961;47.702;9.410;2022-10-16T16:07:35;18.40;99.90
5870;DHT22;2961;47.702;9.410;2022-10-16T16:10:03;18.20;99.90
5870;DHT22;2961;47.702;9.410;2022-10-16T16:12:31;18.10;99.90
5870;DHT22;2961;47.702;9.410;2022-10-16T16:14:59;17.90;99.90
5870;DHT22;2961;47.702;9.410;2022-10-16T16:17:26;17.70;99.90
5870;DHT22;2961;47.702;9.410;2022-10-16T16:19:53;17.60;99.90
5870;DHT22;2961;47.702;9.410;2022-10-16T16:22:20;17.40;99.90
5870;DHT22;2961;47.702;9.410;2022-10-16T16:24:46;17.30;99.90